首页
METAR-TAF:

METAR-TAF

机场 :

Taylor County Airport

Medford, 威斯康辛州, 美国

纬度: 45-06-04N, 经度: 090-18-12W, 海拔: 448米

当前天气观测

该预报发布于10分钟前的21:15 UTC
静风
温度 23°C
湿度 36%
气压 1019 hPa
能見度: 16.1公里
散云层高于8000英尺

METAR: KMDZ 142115Z AUTO 00000KT 10SM SCT080 23/07 A3008 RMK AO2 T02260071 PWINO

时间: 16:25 (21:25 UTC)


TAF: 丢失

超过4000个机场的气象观测和天气预报(METAR&TAF报告)。

可查询的气象台以黄色和红色小点在地图上表示。

将鼠标移到小点上方,可查看气象台名称。

然后点击查看天气观测和预报。

如需切换地图:点击带黑十字的绿色按钮放大地图;点击带横线的绿色按钮缩小地图;或者点击绿色箭头查看邻近地区的地图。


METAR-TAF: